OMAL

Al Ain International Airport

Al Ain, United Arab Emirates
TAF OMAL 182300Z 1900/2006 VRB02KT 7000 NSC PROB30 TEMPO 1900/1905 3000 BR BKN010 BECMG 1906/1908 33014KT PROB30 1910/1914 4000 DU BECMG 1918/1920 26005KT PROB30 2000/2005 VRB02KT 4000 HZ
Issued Valid From Valid To
Jan-18 @ 23:00 UTC
(4 hours ago)
Jan-19 @ 00:00 UTC
(3 hours ago)
Jan-20 @ 06:00 UTC
(-1 days ago)
Jan-19 @ 00:00 to Jan-19 @ 06:00
TAF OMAL 182300Z 1900/2006 VRB02KT 7000 NSC
Wind Visibility Clouds
Variable at 2 knots 7,001 meters
  • No significant clouds
Temporary  (Probability 30%) Jan-19 @ 00:00 to Jan-19 @ 05:00
PROB30 TEMPO 1900/1905 3000 BR BKN010
Visibility Clouds Conditions
2,993 meters
  • Broken at 1,000' AGL
  • Mist
Becoming Jan-19 @ 06:00 to Jan-19 @ 18:00
BECMG 1906/1908 33014KT
Wind Visibility Clouds
330° at 14 knots 7,001 meters
  • No significant clouds
Probable  (Probability 30%) Jan-19 @ 10:00 to Jan-19 @ 14:00
PROB30 1910/1914 4000 DU
Visibility Conditions
4,007 meters
  • Dust
Becoming Jan-19 @ 18:00 to Jan-20 @ 06:00
BECMG 1918/1920 26005KT
Wind Visibility Clouds
260° at 5 knots 7,001 meters
  • No significant clouds
Probable  (Probability 30%) Jan-20 @ 00:00 to Jan-20 @ 05:00
PROB30 2000/2005 VRB02KT 4000 HZ
Wind Visibility Conditions
Variable at 2 knots 4,007 meters
  • Haze
TAF OMAL 182300Z 1900/2006 VRB02KT 7000 NSC PROB30 TEMPO 1900/1905 3000 BR BKN010 BECMG 1906/1908 33014KT PROB30 1910/1914 4000 DU BECMG 1918/1920 26005KT PROB30 2000/2005 VRB02KT 4000 HZ
Issued Jan-18 @ 23:00 UTC
(4 hours ago)
Valid From Jan-19 @ 00:00 UTC
(3 hours ago)
Valid To Jan-20 @ 06:00 UTC
(-1 days ago)
Jan-19 @ 00:00 - Jan-19 @ 06:00
Wind Visibility
Variable at 2 knots 7,001 meters
Clouds
  • No significant clouds
Probability 30% Temporary Jan-19 @ 00:00 - Jan-19 @ 05:00
Clouds
  • Broken at 1,000' AGL
Conditions
  • Mist
Becoming Jan-19 @ 06:00 - Jan-19 @ 18:00
Wind Visibility
330° at 14 knots 7,001 meters
Clouds
  • No significant clouds
Probability 30% Probable Jan-19 @ 10:00 - Jan-19 @ 14:00
Conditions
  • Dust
Becoming Jan-19 @ 18:00 - Jan-20 @ 06:00
Wind Visibility
260° at 5 knots 7,001 meters
Clouds
  • No significant clouds
Probability 30% Probable Jan-20 @ 00:00 - Jan-20 @ 05:00
Wind Visibility
Variable at 2 knots 4,007 meters
Conditions
  • Haze